Time;durP1;ratioP1;P1;durP2;ratioP2;P2;SDS_P1;SDS_P2;PMS_P1;PMS_P2;Temp;Humidity;BMP_temperature;BMP_pressure;BME280_temperature;BME280_humidity;BME280_pressure;Samples;Min_cycle;Max_cycle;Signal;HPM_P1;HPM_P2
2022/07/17 00:00:45;;;;;;;3.78;0.57;;;15.20;99.90;;;;;;5034846;28;20036;-37
2022/07/17 00:03:12;;;;;;;1.90;0.50;;;15.20;99.90;;;;;;5031865;28;20094;-38
2022/07/17 00:05:38;;;;;;;4.17;1.17;;;15.20;99.90;;;;;;5033150;28;20559;-35
2022/07/17 00:08:06;;;;;;;1.70;1.05;;;15.20;99.90;;;;;;5033001;28;20072;-39
2022/07/17 00:10:32;;;;;;;1.90;0.70;;;15.20;99.90;;;;;;5032058;28;20034;-35
2022/07/17 00:12:57;;;;;;;2.58;1.02;;;15.20;99.90;;;;;;5030569;28;20032;-33
2022/07/17 00:15:23;;;;;;;0.88;0.70;;;15.10;99.90;;;;;;5031264;28;20033;-39
2022/07/17 00:17:49;;;;;;;0.82;0.70;;;15.10;99.90;;;;;;5015127;28;20033;-36
2022/07/17 00:20:14;;;;;;;2.80;1.00;;;15.10;99.90;;;;;;5032332;28;20029;-33
2022/07/17 00:22:42;;;;;;;1.00;0.70;;;15.10;99.90;;;;;;5032144;28;20528;-34
2022/07/17 00:25:09;;;;;;;4.95;0.98;;;15.10;99.90;;;;;;5030471;28;20076;-35
2022/07/17 00:27:35;;;;;;;2.13;1.02;;;15.00;99.90;;;;;;5032038;28;20125;-33
2022/07/17 00:30:01;;;;;;;2.28;0.77;;;15.00;99.90;;;;;;5033086;28;20088;-37
2022/07/17 00:32:27;;;;;;;5.18;1.20;;;15.00;99.90;;;;;;5031229;28;20029;-37
2022/07/17 00:34:52;;;;;;;1.08;0.73;;;15.00;99.90;;;;;;5030562;28;20040;-33
2022/07/17 00:37:18;;;;;;;2.45;1.23;;;14.90;99.90;;;;;;5032790;28;20029;-32
2022/07/17 00:39:44;;;;;;;2.10;0.95;;;15.00;99.90;;;;;;5032658;28;20505;-38
2022/07/17 00:42:14;;;;;;;0.80;0.80;;;14.90;99.90;;;;;;5033639;28;20049;-34
2022/07/17 00:44:40;;;;;;;3.45;1.00;;;14.90;99.90;;;;;;5029646;28;20572;-36
2022/07/17 00:47:20;;;;;;;4.00;0.80;;;14.90;99.90;;;;;;5032688;28;20034;-36
2022/07/17 00:49:49;;;;;;;6.85;0.90;;;14.90;99.90;;;;;;5032641;28;20034;-32
2022/07/17 00:55:01;;;;;;;4.28;1.10;;;14.80;99.90;;;;;;5031587;28;20080;-32
2022/07/17 00:57:28;;;;;;;2.72;0.95;;;14.80;99.90;;;;;;5036142;28;20032;-50
2022/07/17 00:59:54;;;;;;;1.13;0.73;;;14.80;99.90;;;;;;5036135;28;20334;-41
2022/07/17 01:02:19;;;;;;;3.17;0.63;;;14.80;99.90;;;;;;5035265;28;20026;-39
2022/07/17 01:04:45;;;;;;;1.55;0.65;;;14.80;99.90;;;;;;5033050;28;20064;-40
2022/07/17 01:07:11;;;;;;;1.23;0.80;;;14.70;99.90;;;;;;5035563;28;20033;-39
2022/07/17 01:09:36;;;;;;;3.25;0.80;;;14.70;99.90;;;;;;5035880;28;20144;-40
2022/07/17 01:12:02;;;;;;;2.55;0.85;;;14.70;99.90;;;;;;5034363;28;20021;-40
2022/07/17 01:14:28;;;;;;;1.75;0.85;;;14.70;99.90;;;;;;5034834;28;20037;-46
2022/07/17 01:16:54;;;;;;;3.95;0.70;;;14.70;99.90;;;;;;5035889;28;20018;-39
2022/07/17 01:19:20;;;;;;;2.08;0.98;;;14.70;99.90;;;;;;5035856;28;20088;-40
2022/07/17 01:21:49;;;;;;;1.00;0.90;;;14.60;99.90;;;;;;5035142;28;20026;-39
2022/07/17 01:24:15;;;;;;;2.00;0.85;;;14.60;99.90;;;;;;5019359;28;20053;-33
2022/07/17 01:26:45;;;;;;;1.65;0.80;;;14.60;99.90;;;;;;5035646;28;20036;-36
2022/07/17 01:29:12;;;;;;;2.10;0.95;;;14.60;99.90;;;;;;5033489;28;20031;-37
2022/07/17 01:31:39;;;;;;;9.53;0.70;;;14.50;99.90;;;;;;5034702;28;20040;-38
2022/07/17 01:34:09;;;;;;;3.10;0.70;;;14.60;99.90;;;;;;5015056;28;20031;-34
2022/07/17 01:36:35;;;;;;;2.70;0.65;;;14.50;99.90;;;;;;5034728;28;20057;-29
2022/07/17 01:39:01;;;;;;;1.20;1.10;;;14.50;99.90;;;;;;5034012;28;20401;-38
2022/07/17 01:41:27;;;;;;;5.47;1.02;;;14.50;99.90;;;;;;5035646;28;20108;-38
2022/07/17 01:43:53;;;;;;;4.22;1.58;;;14.50;99.90;;;;;;5033206;28;20028;-33
2022/07/17 01:46:18;;;;;;;1.80;1.00;;;14.50;99.90;;;;;;5035112;28;20030;-48
2022/07/17 01:48:44;;;;;;;4.80;1.10;;;14.50;99.90;;;;;;5035274;28;20079;-39
2022/07/17 01:51:09;;;;;;;1.17;0.90;;;14.40;99.90;;;;;;5033239;28;20567;-39
2022/07/17 01:53:35;;;;;;;2.30;0.90;;;14.40;99.90;;;;;;5033969;28;20021;-39
2022/07/17 01:56:01;;;;;;;5.32;1.38;;;14.40;99.90;;;;;;5035136;28;20048;-41
2022/07/17 01:58:27;;;;;;;3.88;1.63;;;14.40;99.90;;;;;;5034509;28;20067;-39
2022/07/17 02:00:53;;;;;;;1.65;0.85;;;14.40;99.90;;;;;;5031326;28;20123;-42
2022/07/17 02:03:19;;;;;;;3.03;0.80;;;14.30;99.90;;;;;;5033611;28;20466;-40
2022/07/17 02:05:45;;;;;;;3.67;0.98;;;14.30;99.90;;;;;;5034039;28;20484;-39
2022/07/17 02:08:10;;;;;;;0.85;0.73;;;14.30;99.90;;;;;;5034552;28;20036;-38
2022/07/17 02:10:36;;;;;;;5.70;0.80;;;14.30;99.90;;;;;;5034735;28;20064;-40
2022/07/17 02:13:02;;;;;;;2.88;1.35;;;14.20;99.90;;;;;;5033255;28;20017;-32
2022/07/17 02:15:28;;;;;;;2.80;1.25;;;14.20;99.90;;;;;;5019466;28;20071;-42
2022/07/17 02:17:53;;;;;;;2.20;0.95;;;14.20;99.90;;;;;;5032886;28;20095;-35
2022/07/17 02:20:19;;;;;;;4.05;1.58;;;14.20;99.90;;;;;;5034239;28;20068;-35
2022/07/17 02:22:45;;;;;;;6.35;1.00;;;14.20;99.90;;;;;;5034134;28;20029;-32
2022/07/17 02:25:11;;;;;;;0.85;0.85;;;14.20;99.90;;;;;;5032297;28;20060;-34
2022/07/17 02:27:38;;;;;;;4.68;1.27;;;14.20;99.90;;;;;;5034527;28;20029;-36
2022/07/17 02:30:06;;;;;;;2.00;0.88;;;14.20;99.90;;;;;;5034372;28;20035;-38
2022/07/17 02:32:32;;;;;;;2.65;1.77;;;14.20;99.90;;;;;;5033645;28;20378;-32
2022/07/17 02:34:57;;;;;;;2.70;1.10;;;14.20;99.90;;;;;;5032402;28;20025;-32
2022/07/17 02:37:23;;;;;;;1.65;0.73;;;14.20;99.90;;;;;;5016746;28;20017;-33
2022/07/17 02:39:58;;;;;;;2.35;0.90;;;14.20;99.90;;;;;;5032542;28;20029;-35
2022/07/17 02:42:26;;;;;;;2.95;0.80;;;14.20;99.90;;;;;;5033503;28;20052;-34
2022/07/17 02:44:52;;;;;;;;;;;14.20;99.90;;;;;;5033325;28;20478;-31
2022/07/17 02:47:27;;;;;;;4.18;1.25;;;14.20;99.90;;;;;;5016388;28;19951;-36
2022/07/17 02:49:53;;;;;;;6.18;1.08;;;14.20;99.90;;;;;;5031881;28;20037;-32
2022/07/17 02:52:19;;;;;;;1.27;0.73;;;14.30;99.90;;;;;;5034819;28;20551;-34
2022/07/17 02:54:45;;;;;;;2.40;1.00;;;14.20;99.90;;;;;;5033248;28;20040;-34
2022/07/17 02:57:12;;;;;;;6.78;0.88;;;14.30;99.90;;;;;;5033154;28;20032;-36
2022/07/17 02:59:39;;;;;;;4.55;1.10;;;14.30;99.90;;;;;;5033300;28;20049;-36
2022/07/17 03:02:05;;;;;;;6.25;1.10;;;14.20;99.90;;;;;;5032551;28;20025;-41
2022/07/17 03:04:30;;;;;;;6.38;1.00;;;14.20;99.90;;;;;;5033091;28;20109;-33
2022/07/17 03:06:56;;;;;;;4.35;1.00;;;14.20;99.90;;;;;;5033853;28;20025;-32
2022/07/17 03:09:22;;;;;;;3.53;1.23;;;14.20;99.90;;;;;;5033087;28;20029;-33
2022/07/17 03:11:47;;;;;;;3.72;1.67;;;14.20;99.90;;;;;;5031872;28;20442;-37
2022/07/17 03:14:13;;;;;;;4.32;1.40;;;14.10;99.90;;;;;;5032278;28;20033;-30
2022/07/17 03:16:39;;;;;;;2.90;1.40;;;14.00;99.90;;;;;;5032745;28;20481;-29
2022/07/17 03:19:04;;;;;;;3.63;0.90;;;14.00;99.90;;;;;;5031500;28;20037;-32
2022/07/17 03:21:30;;;;;;;1.70;1.15;;;14.00;99.90;;;;;;5034724;28;20487;-34
2022/07/17 03:23:55;;;;;;;1.98;1.00;;;13.90;99.90;;;;;;5031920;28;20036;-30
2022/07/17 03:26:21;;;;;;;5.70;1.17;;;13.90;99.90;;;;;;5033540;28;20018;-28
2022/07/17 03:28:47;;;;;;;1.75;0.93;;;13.90;99.90;;;;;;5032757;28;20029;-33
2022/07/17 03:31:12;;;;;;;2.92;0.93;;;13.90;99.90;;;;;;5032234;28;20025;-31
2022/07/17 03:33:38;;;;;;;3.10;0.70;;;13.80;99.90;;;;;;5029818;28;20489;-33
2022/07/17 03:36:04;;;;;;;5.25;1.50;;;13.80;99.90;;;;;;5031975;28;20079;-34
2022/07/17 03:38:29;;;;;;;3.20;1.65;;;13.80;99.90;;;;;;5032881;28;20478;-44
2022/07/17 03:40:55;;;;;;;3.05;1.23;;;13.70;99.90;;;;;;5032912;28;20120;-46
2022/07/17 03:43:21;;;;;;;1.85;1.15;;;13.70;99.90;;;;;;5032879;28;20022;-39
2022/07/17 03:45:46;;;;;;;4.60;1.50;;;13.60;99.90;;;;;;5013525;28;20026;-40
2022/07/17 03:48:12;;;;;;;5.68;2.00;;;13.60;99.90;;;;;;5018468;28;20033;-39
2022/07/17 03:50:38;;;;;;;2.45;1.60;;;13.60;99.90;;;;;;5032098;28;20493;-36
2022/07/17 03:53:03;;;;;;;7.35;1.88;;;13.60;99.90;;;;;;5031896;28;20052;-31
2022/07/17 03:55:29;;;;;;;3.70;1.75;;;13.60;99.90;;;;;;5029618;28;20021;-33
2022/07/17 03:57:54;;;;;;;6.28;1.27;;;13.70;99.90;;;;;;5032562;28;20033;-32
2022/07/17 04:00:20;;;;;;;2.15;1.25;;;13.60;99.90;;;;;;5032625;28;20116;-32
2022/07/17 04:02:46;;;;;;;2.40;1.00;;;13.60;99.90;;;;;;5031160;28;20087;-31
2022/07/17 04:05:12;;;;;;;4.47;1.20;;;13.70;99.90;;;;;;5031342;28;20033;-31
2022/07/17 04:07:38;;;;;;;1.98;1.15;;;13.70;99.90;;;;;;5033833;28;20155;-35
2022/07/17 04:10:05;;;;;;;2.55;1.00;;;13.70;99.90;;;;;;5032365;28;20445;-32
2022/07/17 04:12:30;;;;;;;3.05;1.10;;;13.70;99.90;;;;;;5010525;28;20402;-32
2022/07/17 04:14:56;;;;;;;2.38;1.05;;;13.70;99.90;;;;;;5020464;28;20029;-30
2022/07/17 04:17:22;;;;;;;4.88;1.50;;;13.70;99.90;;;;;;5030639;28;20381;-34
2022/07/17 04:19:49;;;;;;;2.53;1.23;;;13.70;99.90;;;;;;5013985;28;20045;-36
2022/07/17 04:22:15;;;;;;;0.98;0.93;;;13.70;99.90;;;;;;5032088;28;20025;-34
2022/07/17 04:24:40;;;;;;;2.65;1.52;;;13.80;99.90;;;;;;5032778;28;20069;-33
2022/07/17 04:27:06;;;;;;;2.75;1.52;;;13.80;99.90;;;;;;5032744;28;20041;-39
2022/07/17 04:29:33;;;;;;;7.10;1.75;;;13.80;99.90;;;;;;5033811;28;20029;-39
2022/07/17 04:31:58;;;;;;;1.15;1.10;;;13.80;99.90;;;;;;5033541;28;20083;-36
2022/07/17 04:34:24;;;;;;;1.98;1.35;;;13.90;99.90;;;;;;5036985;28;20069;-33
2022/07/17 04:36:50;;;;;;;4.95;1.50;;;13.90;99.90;;;;;;5036873;28;20030;-33
2022/07/17 04:39:16;;;;;;;4.45;1.27;;;13.90;99.90;;;;;;5035603;28;20033;-36
2022/07/17 04:41:41;;;;;;;5.80;1.50;;;13.90;99.90;;;;;;5034457;28;20029;-35
2022/07/17 04:44:07;;;;;;;7.93;1.40;;;13.90;99.90;;;;;;5036466;28;20040;-31
2022/07/17 04:46:33;;;;;;;4.07;1.55;;;13.90;99.90;;;;;;5036470;28;20035;-35
2022/07/17 04:48:58;;;;;;;3.10;1.50;;;14.00;99.90;;;;;;5034796;28;20080;-33
2022/07/17 04:51:24;;;;;;;4.38;1.00;;;14.10;99.90;;;;;;5033962;28;20042;-31
2022/07/17 04:53:50;;;;;;;3.38;1.58;;;14.10;99.90;;;;;;5035565;28;20091;-33
2022/07/17 04:56:15;;;;;;;1.38;1.10;;;14.20;99.90;;;;;;5036235;28;20428;-34
2022/07/17 04:58:41;;;;;;;2.58;1.05;;;14.30;99.90;;;;;;5035327;28;20030;-31
2022/07/17 05:01:06;;;;;;;3.42;1.10;;;14.40;99.90;;;;;;5035391;28;20045;-40
2022/07/17 05:03:32;;;;;;;6.78;1.02;;;14.40;99.90;;;;;;5034698;28;20032;-31
2022/07/17 05:05:58;;;;;;;1.73;0.80;;;14.50;99.90;;;;;;5036095;28;20029;-33
2022/07/17 05:08:24;;;;;;;3.40;0.73;;;14.60;99.90;;;;;;5035214;28;20552;-34
2022/07/17 05:10:49;;;;;;;4.18;0.60;;;14.70;99.90;;;;;;5035195;28;20397;-31
2022/07/17 05:13:15;;;;;;;4.78;0.73;;;14.90;99.90;;;;;;5033381;28;20029;-33
2022/07/17 05:15:40;;;;;;;1.45;0.52;;;15.10;99.90;;;;;;5035919;28;20026;-49
2022/07/17 05:18:06;;;;;;;2.92;0.75;;;15.20;99.90;;;;;;5035309;28;20482;-39
2022/07/17 05:20:32;;;;;;;4.47;1.02;;;15.40;99.90;;;;;;5034701;28;20048;-37
2022/07/17 05:22:57;;;;;;;3.70;0.95;;;15.50;99.90;;;;;;5033522;28;20034;-33
2022/07/17 05:25:23;;;;;;;2.15;0.60;;;15.70;99.90;;;;;;5017898;28;20108;-31
2022/07/17 05:27:49;;;;;;;4.30;0.80;;;15.80;99.90;;;;;;5034814;28;20458;-31
2022/07/17 05:30:14;;;;;;;5.68;1.10;;;15.80;99.90;;;;;;5034196;28;20021;-32
2022/07/17 05:32:40;;;;;;;6.13;0.90;;;15.90;99.90;;;;;;5034560;28;20044;-35
2022/07/17 05:35:06;;;;;;;5.25;0.77;;;16.10;99.90;;;;;;5035504;28;20470;-33
2022/07/17 05:37:32;;;;;;;5.80;0.80;;;16.10;99.90;;;;;;5033923;28;20025;-29
2022/07/17 05:39:57;;;;;;;5.28;1.00;;;16.10;99.90;;;;;;5034209;28;20385;-35
2022/07/17 05:42:23;;;;;;;1.85;0.88;;;16.10;99.90;;;;;;5033051;28;20445;-34
2022/07/17 05:44:48;;;;;;;3.88;1.38;;;16.10;99.90;;;;;;5034409;28;20029;-35
2022/07/17 05:47:14;;;;;;;0.68;0.65;;;16.20;99.90;;;;;;5035585;28;20025;-34
2022/07/17 05:49:40;;;;;;;1.00;0.52;;;16.20;99.90;;;;;;5032923;28;20069;-35
2022/07/17 05:52:05;;;;;;;1.98;0.68;;;16.20;99.90;;;;;;5033148;28;20543;-33
2022/07/17 05:54:32;;;;;;;1.65;1.20;;;16.30;99.90;;;;;;5034438;28;20026;-33
2022/07/17 05:56:59;;;;;;;4.50;0.57;;;16.30;99.90;;;;;;5034282;28;20061;-38
2022/07/17 05:59:25;;;;;;;3.00;0.73;;;16.30;99.90;;;;;;5033832;28;20037;-37
2022/07/17 06:01:50;;;;;;;0.70;0.70;;;16.40;99.90;;;;;;5036662;28;20481;-34
2022/07/17 06:04:16;;;;;;;3.25;0.77;;;16.60;99.90;;;;;;5055178;28;20056;-35
2022/07/17 06:06:42;;;;;;;2.60;0.40;;;16.70;99.90;;;;;;5051039;28;20547;-38
2022/07/17 06:09:07;;;;;;;6.93;0.82;;;16.70;99.90;;;;;;5033768;28;20167;-37
2022/07/17 06:11:33;;;;;;;2.80;0.85;;;16.80;99.90;;;;;;5032483;28;20029;-36
2022/07/17 06:13:59;;;;;;;2.08;0.57;;;17.00;99.90;;;;;;5034421;28;20484;-38
2022/07/17 06:16:24;;;;;;;4.78;1.08;;;17.30;99.90;;;;;;5016288;28;20030;-39
2022/07/17 06:18:50;;;;;;;7.68;0.90;;;17.50;99.90;;;;;;5037972;28;20033;-38
2022/07/17 06:21:16;;;;;;;5.95;0.65;;;17.80;99.90;;;;;;5032032;28;20481;-39
2022/07/17 06:23:41;;;;;;;0.90;0.52;;;17.90;99.90;;;;;;5032940;28;20444;-37
2022/07/17 06:26:07;;;;;;;1.70;0.60;;;17.90;99.90;;;;;;5018191;28;20025;-32
2022/07/17 06:28:33;;;;;;;1.50;0.60;;;17.90;99.90;;;;;;5033467;28;20036;-35
2022/07/17 06:30:58;;;;;;;3.28;0.75;;;18.30;99.90;;;;;;5032966;28;20027;-33
2022/07/17 06:33:24;;;;;;;2.40;0.90;;;19.20;99.90;;;;;;5033158;28;20497;-42
2022/07/17 06:35:49;;;;;;;4.15;0.80;;;19.40;99.90;;;;;;5041974;28;20481;-41
2022/07/17 06:38:15;;;;;;;5.35;1.10;;;19.40;99.90;;;;;;5033879;28;20041;-40
2022/07/17 06:40:41;;;;;;;1.98;0.95;;;20.30;99.90;;;;;;5039360;28;20112;-39
2022/07/17 06:43:06;;;;;;;1.80;0.65;;;22.70;97.80;;;;;;5033673;28;20034;-39
2022/07/17 06:45:32;;;;;;;2.72;0.88;;;24.90;95.60;;;;;;5030751;28;20025;-36
2022/07/17 06:47:58;;;;;;;2.85;0.70;;;26.20;94.00;;;;;;5033084;28;20397;-42
2022/07/17 06:50:24;;;;;;;4.38;0.60;;;26.40;93.10;;;;;;5033393;28;20053;-39
2022/07/17 06:52:50;;;;;;;5.28;0.65;;;25.60;92.90;;;;;;5030143;28;20132;-39
2022/07/17 06:55:15;;;;;;;1.85;0.70;;;24.40;93.40;;;;;;5032836;28;20029;-39
2022/07/17 06:57:41;;;;;;;0.93;0.50;;;23.10;94.50;;;;;;5034526;28;20503;-43
2022/07/17 07:00:08;;;;;;;2.78;0.60;;;22.10;95.40;;;;;;5034032;28;20037;-51
2022/07/17 07:02:34;;;;;;;4.30;0.50;;;21.50;96.30;;;;;;5032782;28;20051;-39
2022/07/17 07:05:00;;;;;;;5.57;1.27;;;21.30;96.90;;;;;;5041154;28;20539;-38
2022/07/17 07:07:25;;;;;;;1.67;0.85;;;22.00;96.10;;;;;;5051714;28;20025;-40
2022/07/17 07:09:51;;;;;;;2.20;0.80;;;23.20;95.40;;;;;;5052301;28;20029;-40
2022/07/17 07:12:17;;;;;;;1.77;0.60;;;24.30;94.40;;;;;;5038041;28;20025;-40
2022/07/17 07:14:42;;;;;;;3.92;1.10;;;25.20;93.50;;;;;;5031985;28;20481;-40
2022/07/17 07:17:08;;;;;;;2.65;0.90;;;25.90;92.90;;;;;;5032952;28;20029;-38
2022/07/17 07:19:34;;;;;;;3.50;0.82;;;26.50;92.90;;;;;;5035563;28;20073;-40
2022/07/17 07:21:59;;;;;;;2.03;0.63;;;26.80;92.20;;;;;;5032262;28;20116;-41
2022/07/17 07:24:25;;;;;;;2.88;0.50;;;26.60;92.20;;;;;;5032618;28;20025;-40
2022/07/17 07:26:51;;;;;;;2.88;0.70;;;26.60;92.50;;;;;;5033512;28;20048;-40
2022/07/17 07:29:17;;;;;;;4.68;0.55;;;25.80;93.00;;;;;;5034152;28;20033;-39
2022/07/17 07:31:42;;;;;;;1.95;0.50;;;26.10;92.80;;;;;;5031919;28;20067;-40
2022/07/17 07:34:08;;;;;;;6.15;0.55;;;26.20;92.80;;;;;;5031657;28;20435;-40
2022/07/17 07:36:33;;;;;;;3.38;0.63;;;26.30;92.80;;;;;;5033944;28;20017;-40
2022/07/17 07:38:59;;;;;;;1.20;0.50;;;26.30;92.60;;;;;;5047870;28;20382;-41
2022/07/17 07:41:25;;;;;;;6.57;0.55;;;25.70;92.90;;;;;;5045426;28;20087;-41
2022/07/17 07:43:50;;;;;;;1.58;0.70;;;24.70;93.90;;;;;;5033596;28;20036;-40
2022/07/17 07:46:16;;;;;;;3.42;0.50;;;24.00;94.50;;;;;;5032223;28;20116;-42
2022/07/17 07:48:41;;;;;;;3.92;0.82;;;23.10;94.90;;;;;;5016603;28;20029;-40
2022/07/17 07:51:07;;;;;;;3.08;0.77;;;22.40;95.00;;;;;;5033236;28;20037;-42
2022/07/17 07:53:33;;;;;;;2.08;0.63;;;22.20;95.70;;;;;;5030370;28;20037;-39
2022/07/17 07:55:59;;;;;;;2.33;0.70;;;21.80;96.30;;;;;;5018296;28;20121;-40
2022/07/17 07:58:24;;;;;;;5.18;0.52;;;21.80;96.40;;;;;;5028507;28;20013;-41
2022/07/17 08:00:50;;;;;;;2.35;0.90;;;21.80;96.70;;;;;;5032657;28;20029;-41
2022/07/17 08:03:16;;;;;;;0.68;0.68;;;21.90;96.60;;;;;;5011514;28;20072;-41
2022/07/17 08:05:42;;;;;;;0.85;0.30;;;22.20;96.10;;;;;;5036656;28;20061;-42
2022/07/17 08:08:07;;;;;;;1.20;0.60;;;22.40;96.30;;;;;;5037371;28;20493;-31
2022/07/17 08:10:33;;;;;;;1.08;0.68;;;22.80;96.00;;;;;;5036116;28;20065;-32
2022/07/17 08:12:59;;;;;;;0.63;0.22;;;22.80;96.10;;;;;;5034445;28;20028;-37
2022/07/17 08:15:24;;;;;;;1.75;0.60;;;23.10;95.40;;;;;;5036950;28;20030;-33
2022/07/17 08:17:52;;;;;;;2.72;0.40;;;23.50;95.20;;;;;;5036670;28;20037;-34
2022/07/17 08:20:18;;;;;;;0.75;0.52;;;23.70;95.10;;;;;;5037350;28;20393;-53
2022/07/17 08:22:46;;;;;;;0.40;0.40;;;23.90;94.00;;;;;;5035799;28;20044;-34
2022/07/17 08:25:30;;;;;;;4.25;0.90;;;24.00;94.00;;;;;;5035783;28;20497;-31
2022/07/17 08:27:56;;;;;;;5.10;0.70;;;24.00;94.30;;;;;;5036789;28;20440;-34
2022/07/17 08:30:22;;;;;;;2.30;0.50;;;24.40;94.00;;;;;;5017854;28;20116;-37
2022/07/17 08:32:47;;;;;;;2.85;0.98;;;24.80;93.80;;;;;;5035721;28;20032;-37
2022/07/17 08:35:13;;;;;;;0.88;0.57;;;25.00;93.40;;;;;;5036641;28;20028;-35
2022/07/17 08:37:50;;;;;;;1.95;0.77;;;25.20;93.40;;;;;;5043207;28;20036;-35
2022/07/17 08:40:20;;;;;;;;;;;24.80;93.00;;;;;;5049144;28;20033;-36
2022/07/17 08:42:46;;;;;;;3.25;0.50;;;24.60;93.30;;;;;;5034583;28;19916;-35
2022/07/17 08:45:13;;;;;;;0.32;0.30;;;24.60;93.40;;;;;;5033425;28;20026;-33
2022/07/17 08:47:39;;;;;;;4.07;1.10;;;24.60;93.30;;;;;;5032740;28;20025;-40
2022/07/17 08:50:05;;;;;;;0.87;0.40;;;24.80;93.30;;;;;;5026484;28;20029;-34
2022/07/17 08:52:31;;;;;;;2.67;0.82;;;24.90;92.70;;;;;;5028533;28;20071;-39
2022/07/17 08:54:57;;;;;;;1.17;0.52;;;25.60;92.00;;;;;;5033164;28;20421;-38
2022/07/17 08:57:23;;;;;;;2.28;0.52;;;25.80;91.90;;;;;;5030508;28;20021;-39
2022/07/17 08:59:48;;;;;;;0.40;0.40;;;26.00;91.90;;;;;;5034871;28;20017;-40
2022/07/17 09:02:14;;;;;;;2.00;0.68;;;26.20;92.00;;;;;;5030453;28;20017;-39
2022/07/17 09:04:40;;;;;;;2.45;0.88;;;26.10;91.70;;;;;;5028568;28;20101;-38
2022/07/17 09:07:06;;;;;;;2.00;0.80;;;25.30;92.10;;;;;;5029565;28;20034;-38
2022/07/17 09:09:35;;;;;;;2.03;0.70;;;25.10;92.80;;;;;;5028138;28;20013;-34
2022/07/17 09:12:27;;;;;;;1.52;0.77;;;25.20;92.40;;;;;;5027749;28;20053;-39
2022/07/17 09:14:53;;;;;;;0.70;0.50;;;25.50;91.90;;;;;;5034360;28;20052;-39
2022/07/17 09:17:18;;;;;;;2.30;0.77;;;25.90;91.40;;;;;;5010143;28;20018;-37
2022/07/17 09:19:45;;;;;;;1.98;0.70;;;25.70;91.40;;;;;;5033702;28;20022;-34
2022/07/17 09:22:11;;;;;;;1.05;0.60;;;25.20;91.50;;;;;;5034266;28;20489;-39
2022/07/17 09:24:44;;;;;;;2.50;0.70;;;25.10;91.70;;;;;;5034079;28;20461;-33
2022/07/17 09:27:13;;;;;;;1.45;0.50;;;25.50;91.50;;;;;;5034200;28;20072;-35
2022/07/17 09:29:59;;;;;;;0.73;0.60;;;26.00;91.10;;;;;;5034634;28;20478;-35
2022/07/17 09:32:30;;;;;;;2.78;0.98;;;26.60;91.00;;;;;;5033644;28;20083;-39
2022/07/17 09:34:58;;;;;;;1.15;0.57;;;27.00;90.70;;;;;;5034599;28;20037;-38
2022/07/17 09:37:25;;;;;;;5.95;0.80;;;26.70;90.70;;;;;;5035495;28;20030;-34
2022/07/17 09:39:53;;;;;;;2.10;0.80;;;26.10;91.20;;;;;;5031450;28;20040;-39
2022/07/17 09:42:27;;;;;;;4.03;0.70;;;25.80;91.40;;;;;;5031848;28;20116;-37
2022/07/17 09:45:04;;;;;;;1.08;0.90;;;25.30;91.70;;;;;;5032651;28;20104;-41
2022/07/17 09:47:32;;;;;;;2.85;0.70;;;25.40;91.90;;;;;;5033742;28;20540;-36
2022/07/17 09:50:00;;;;;;;0.98;0.95;;;25.80;91.80;;;;;;5033101;28;20419;-37
2022/07/17 09:52:29;;;;;;;1.50;0.82;;;26.00;91.50;;;;;;5034196;28;20033;-32
2022/07/17 09:54:56;;;;;;;1.50;0.95;;;26.10;91.10;;;;;;5016749;28;20031;-31
2022/07/17 09:57:30;;;;;;;1.50;0.63;;;25.90;91.50;;;;;;5034353;28;20029;-34
2022/07/17 10:00:03;;;;;;;1.65;0.98;;;25.40;91.80;;;;;;5033383;28;20029;-41
2022/07/17 10:02:30;;;;;;;0.73;0.63;;;24.90;92.10;;;;;;5039074;28;20469;-41
2022/07/17 10:04:56;;;;;;;2.80;0.87;;;24.70;92.30;;;;;;5036925;28;20101;-47
2022/07/17 10:07:23;;;;;;;2.58;0.60;;;24.90;92.40;;;;;;5032137;28;20108;-40
2022/07/17 10:09:49;;;;;;;;;;;25.40;92.50;;;;;;5033302;28;20075;-36
2022/07/17 10:12:16;;;;;;;1.13;0.50;;;26.10;92.20;;;;;;5024888;28;20315;-43
2022/07/17 10:14:43;;;;;;;2.70;0.77;;;26.90;91.30;;;;;;5035000;28;20129;-47
2022/07/17 10:17:10;;;;;;;3.20;0.77;;;27.60;90.80;;;;;;5034014;28;20028;-41
2022/07/17 10:19:52;;;;;;;2.50;1.23;;;27.70;90.80;;;;;;5028501;28;20036;-41
2022/07/17 10:22:18;;;;;;;3.50;1.13;;;27.30;90.50;;;;;;5035062;28;20355;-39
2022/07/17 10:24:52;;;;;;;1.58;0.90;;;26.80;91.20;;;;;;5033474;28;20036;-38
2022/07/17 10:27:21;;;;;;;3.13;0.70;;;26.80;91.00;;;;;;5033004;28;20052;-38
2022/07/17 10:29:47;;;;;;;2.65;1.10;;;26.80;91.10;;;;;;5028168;28;20022;-41
2022/07/17 10:32:18;;;;;;;3.38;1.33;;;26.90;91.10;;;;;;5034115;28;20021;-39
2022/07/17 10:34:45;;;;;;;1.23;1.13;;;27.10;90.90;;;;;;5033648;28;20033;-40
2022/07/17 10:37:23;;;;;;;2.10;1.02;;;27.20;90.70;;;;;;5032445;28;20061;-41
2022/07/17 10:39:57;;;;;;;3.63;1.25;;;26.70;90.80;;;;;;5032464;28;20096;-41
2022/07/17 10:42:45;;;;;;;2.97;1.02;;;26.20;91.70;;;;;;5033962;28;20107;-43
2022/07/17 10:45:14;;;;;;;0.88;0.88;;;25.70;92.10;;;;;;5027016;28;20534;-41
2022/07/17 10:48:06;;;;;;;2.45;1.13;;;25.40;92.20;;;;;;5031289;28;20545;-41
2022/07/17 10:50:38;;;;;;;6.93;1.42;;;25.80;92.60;;;;;;5004712;28;20498;-46
2022/07/17 10:53:06;;;;;;;5.43;2.08;;;26.10;91.90;;;;;;5011598;28;20572;-41
2022/07/17 10:55:31;;;;;;;;;;;26.20;91.40;;;;;;5010044;28;20045;-43
2022/07/17 10:57:57;;;;;;;1.60;1.43;;;26.30;91.90;;;;;;5009311;28;19909;-36
2022/07/17 11:00:24;;;;;;;2.42;1.05;;;26.50;91.30;;;;;;5012261;28;20062;-41
2022/07/17 11:02:50;;;;;;;1.48;0.95;;;26.80;90.90;;;;;;5013329;28;20561;-43
2022/07/17 11:05:16;;;;;;;1.33;1.13;;;26.80;91.50;;;;;;5013155;28;20153;-42
2022/07/17 11:07:55;;;;;;;1.20;1.10;;;26.80;91.10;;;;;;4999721;28;20037;-41
2022/07/17 11:10:25;;;;;;;2.30;0.90;;;26.80;91.10;;;;;;4994460;28;20483;-41
2022/07/17 11:12:52;;;;;;;1.13;1.00;;;26.80;91.10;;;;;;5011701;28;20037;-42
2022/07/17 11:15:18;;;;;;;3.35;1.30;;;26.80;91.30;;;;;;5011430;28;20037;-41
2022/07/17 11:17:48;;;;;;;3.40;1.15;;;26.70;91.60;;;;;;5012661;28;20026;-42
2022/07/17 11:20:15;;;;;;;1.67;0.98;;;26.80;91.10;;;;;;5013278;28;20474;-43
2022/07/17 11:22:41;;;;;;;2.80;1.23;;;26.80;91.20;;;;;;5014168;28;20034;-41
2022/07/17 11:25:08;;;;;;;2.85;1.15;;;26.90;90.60;;;;;;5011790;28;20037;-40
2022/07/17 11:27:35;;;;;;;2.97;1.48;;;26.90;91.20;;;;;;5011059;28;20033;-41
2022/07/17 11:30:02;;;;;;;1.15;1.00;;;26.80;91.10;;;;;;5013752;28;20072;-42
2022/07/17 11:32:36;;;;;;;1.20;1.00;;;26.90;90.80;;;;;;5012439;28;20033;-41
2022/07/17 11:35:17;;;;;;;2.42;1.27;;;27.00;91.40;;;;;;5012611;28;20410;-41
2022/07/17 11:37:43;;;;;;;1.27;1.08;;;26.90;91.00;;;;;;5012857;28;20092;-42
2022/07/17 11:40:09;;;;;;;3.53;1.00;;;26.80;90.90;;;;;;5012732;28;20474;-42
2022/07/17 11:42:35;;;;;;;1.35;1.10;;;26.80;90.70;;;;;;5013714;28;20033;-41
2022/07/17 11:45:01;;;;;;;3.63;1.20;;;26.80;90.30;;;;;;5011894;28;20092;-41
2022/07/17 11:47:27;;;;;;;2.92;1.27;;;26.90;90.80;;;;;;5007935;28;20025;-42
2022/07/17 11:50:05;;;;;;;2.10;1.13;;;27.10;90.50;;;;;;5012189;28;20642;-42
2022/07/17 11:52:41;;;;;;;1.98;1.38;;;27.10;90.70;;;;;;5011297;28;20034;-41
2022/07/17 11:55:07;;;;;;;2.85;1.42;;;27.10;91.30;;;;;;5013596;28;20498;-39
2022/07/17 11:57:42;;;;;;;1.98;1.77;;;27.10;90.90;;;;;;5009182;28;20075;-41
2022/07/17 12:00:08;;;;;;;2.28;1.58;;;26.90;91.00;;;;;;5006701;28;20106;-41
2022/07/17 12:02:34;;;;;;;2.80;1.40;;;27.00;90.60;;;;;;5009867;28;20034;-35
2022/07/17 12:05:00;;;;;;;3.53;1.48;;;27.30;90.10;;;;;;5012980;28;20052;-41
2022/07/17 12:07:43;;;;;;;2.00;1.80;;;27.30;90.30;;;;;;5015387;28;20041;-36
2022/07/17 12:10:21;;;;;;;1.55;1.25;;;26.80;90.20;;;;;;5007162;28;20559;-42
2022/07/17 12:12:56;;;;;;;3.78;1.38;;;26.80;90.40;;;;;;5009083;28;20053;-52
2022/07/17 12:15:34;;;;;;;1.70;1.52;;;26.80;91.20;;;;;;5007191;28;20034;-42
2022/07/17 12:18:00;;;;;;;2.88;1.80;;;26.60;90.90;;;;;;5007973;28;20032;-44
2022/07/17 12:20:39;;;;;;;1.67;1.40;;;26.50;91.40;;;;;;5012663;28;20121;-43
2022/07/17 12:23:05;;;;;;;2.88;1.55;;;26.20;91.20;;;;;;5012035;28;20045;-41
2022/07/17 12:25:30;;;;;;;3.70;1.70;;;26.20;91.50;;;;;;5012301;28;20034;-40
2022/07/17 12:27:56;;;;;;;3.33;1.73;;;26.10;91.20;;;;;;5010047;28;20022;-34
2022/07/17 12:30:22;;;;;;;1.60;1.25;;;26.50;90.40;;;;;;5012471;28;20548;-36
2022/07/17 12:32:47;;;;;;;3.92;1.60;;;26.70;89.90;;;;;;5013427;28;20097;-35
2022/07/17 12:35:14;;;;;;;2.92;1.58;;;26.70;89.20;;;;;;5010277;28;20033;-37
2022/07/17 12:37:40;;;;;;;2.45;1.45;;;26.80;90.10;;;;;;5011060;28;20033;-40
2022/07/17 12:40:07;;;;;;;2.10;1.58;;;27.00;90.00;;;;;;5010140;28;20026;-34
2022/07/17 12:42:32;;;;;;;6.05;2.13;;;27.10;90.50;;;;;;5005145;28;20565;-34
2022/07/17 12:44:58;;;;;;;3.60;1.58;;;27.10;90.70;;;;;;5012331;28;20117;-35
2022/07/17 12:47:24;;;;;;;2.83;1.52;;;27.10;90.90;;;;;;5010495;28;20108;-37
2022/07/17 12:49:49;;;;;;;4.28;2.08;;;27.30;90.10;;;;;;5005155;28;20048;-37